Time;durP1;ratioP1;P1;durP2;ratioP2;P2;SDS_P1;SDS_P2;PMS_P1;PMS_P2;Temp;Humidity;BMP_temperature;BMP_pressure;BME280_temperature;BME280_humidity;BME280_pressure;Samples;Min_cycle;Max_cycle;Signal;HPM_P1;HPM_P2
2024/01/20 00:01:52;;;;;;;18.27;10.48;;;;;;;-5.39;100.00;102228.75;4989766;28;20546;-69
2024/01/20 00:04:17;;;;;;;18.65;10.40;;;;;;;-5.63;100.00;102234.38;4994144;28;20042;-68
2024/01/20 00:06:43;;;;;;;20.77;10.73;;;;;;;-5.73;100.00;102234.41;4991028;28;20092;-69
2024/01/20 00:09:08;;;;;;;16.70;9.63;;;;;;;-5.83;100.00;102235.34;4991208;28;20048;-68
2024/01/20 00:11:34;;;;;;;20.27;9.75;;;;;;;-5.91;100.00;102240.47;4994905;28;20026;-68
2024/01/20 00:13:59;;;;;;;19.55;10.25;;;;;;;-5.93;100.00;102239.50;4991092;28;20113;-68
2024/01/20 00:16:25;;;;;;;21.67;11.13;;;;;;;-6.00;100.00;102249.84;4992864;28;20033;-68
2024/01/20 00:18:50;;;;;;;18.98;10.73;;;;;;;-6.09;100.00;102240.78;4993839;28;20050;-68
2024/01/20 00:21:15;;;;;;;19.88;9.93;;;;;;;-6.14;100.00;102231.09;4990464;28;20066;-68
2024/01/20 00:23:41;;;;;;;23.85;11.23;;;;;;;-6.17;100.00;102233.34;4995034;28;20038;-69
2024/01/20 00:26:06;;;;;;;21.80;10.27;;;;;;;-6.24;100.00;102233.63;4994185;28;20022;-68
2024/01/20 00:28:31;;;;;;;23.40;11.75;;;;;;;-6.29;100.00;102227.31;4990221;28;20077;-68
2024/01/20 00:30:57;;;;;;;23.20;11.48;;;;;;;-6.35;100.00;102231.84;4994652;28;20038;-68
2024/01/20 00:33:22;;;;;;;26.60;12.05;;;;;;;-6.51;100.00;102233.88;4994595;28;20038;-68
2024/01/20 00:35:48;;;;;;;25.60;12.77;;;;;;;-6.60;100.00;102229.84;4989667;28;20037;-68
2024/01/20 00:38:14;;;;;;;24.13;12.60;;;;;;;-6.63;100.00;102232.09;4998341;28;20145;-68
2024/01/20 00:40:39;;;;;;;22.45;11.05;;;;;;;-6.68;100.00;102225.81;4994581;28;20368;-68
2024/01/20 00:43:05;;;;;;;22.77;12.07;;;;;;;-6.75;100.00;102232.72;4991912;28;20053;-68
2024/01/20 00:45:31;;;;;;;24.10;12.18;;;;;;;-6.78;100.00;102233.34;4993578;28;20030;-68
2024/01/20 00:47:56;;;;;;;26.27;11.60;;;;;;;-6.76;100.00;102236.88;4993572;28;20081;-67
2024/01/20 00:50:23;;;;;;;26.67;13.90;;;;;;;-6.69;100.00;102239.13;4995183;28;20042;-69
2024/01/20 00:52:48;;;;;;;24.90;13.43;;;;;;;-6.51;100.00;102239.81;4991710;28;20045;-68
2024/01/20 00:55:14;;;;;;;32.80;14.32;;;;;;;-6.50;100.00;102235.63;4991683;28;20042;-68
2024/01/20 00:57:39;;;;;;;34.65;15.00;;;;;;;-6.47;100.00;102236.75;4990670;28;20062;-68
2024/01/20 01:00:09;;;;;;;36.75;17.50;;;;;;;-6.40;100.00;102235.63;4990737;28;20050;-69
2024/01/20 01:02:38;;;;;;;36.03;16.50;;;;;;;-6.50;100.00;102228.06;4994804;28;20045;-68
2024/01/20 01:05:05;;;;;;;34.58;17.13;;;;;;;-6.45;100.00;102236.91;4995798;28;20486;-68
2024/01/20 01:07:31;;;;;;;42.15;18.52;;;;;;;-6.36;100.00;102235.16;4996279;28;20196;-68
2024/01/20 01:09:57;;;;;;;38.97;17.98;;;;;;;-6.34;100.00;102228.59;4990331;28;20081;-68
2024/01/20 01:12:22;;;;;;;32.10;16.55;;;;;;;-6.33;100.00;102230.38;4995628;28;20050;-68
2024/01/20 01:14:48;;;;;;;37.92;18.10;;;;;;;-6.25;100.00;102237.78;4991251;28;20037;-69
2024/01/20 01:17:13;;;;;;;42.08;19.40;;;;;;;-6.22;100.00;102234.63;5004168;28;20044;-68
2024/01/20 01:19:38;;;;;;;43.47;18.38;;;;;;;-6.20;100.00;102238.13;4992447;28;20034;-69
2024/01/20 01:22:04;;;;;;;40.85;18.17;;;;;;;-6.18;100.00;102245.06;4999262;28;20213;-69
2024/01/20 01:24:29;;;;;;;51.67;19.50;;;;;;;-6.11;100.00;102246.44;4993069;28;20038;-69
2024/01/20 01:26:55;;;;;;;40.25;18.75;;;;;;;-6.10;100.00;102250.72;4989728;28;20546;-68
2024/01/20 01:29:20;;;;;;;42.55;19.25;;;;;;;-6.04;100.00;102253.75;4994349;28;20129;-69
2024/01/20 01:31:46;;;;;;;48.33;19.58;;;;;;;-6.01;100.00;102248.97;4993300;28;20360;-68
2024/01/20 01:34:11;;;;;;;42.53;18.73;;;;;;;-6.02;100.00;102254.75;4988783;28;20037;-68
2024/01/20 01:36:37;;;;;;;37.97;17.67;;;;;;;-6.10;100.00;102269.22;4982936;28;20045;-68
2024/01/20 01:39:02;;;;;;;39.83;17.42;;;;;;;-6.15;100.00;102270.47;4987992;28;20030;-68
2024/01/20 01:41:28;;;;;;;37.55;16.40;;;;;;;-6.21;100.00;102269.09;4987732;28;20058;-68
2024/01/20 01:43:53;;;;;;;38.10;16.95;;;;;;;-6.26;100.00;102265.31;4988753;28;20113;-68
2024/01/20 01:46:19;;;;;;;38.78;17.45;;;;;;;-6.38;100.00;102276.88;4988786;28;20042;-69
2024/01/20 01:48:45;;;;;;;37.45;17.27;;;;;;;-6.46;100.00;102282.91;4988175;28;20038;-69
2024/01/20 01:51:12;;;;;;;37.40;15.75;;;;;;;-6.57;100.00;102285.41;4983010;28;20093;-69
2024/01/20 01:53:39;;;;;;;35.50;15.52;;;;;;;-6.74;100.00;102283.13;4985761;28;20125;-68
2024/01/20 01:56:05;;;;;;;25.30;12.95;;;;;;;-7.05;100.00;102288.84;4985843;28;20077;-68
2024/01/20 01:58:30;;;;;;;27.95;12.93;;;;;;;-7.23;100.00;102289.78;4988224;28;20436;-68
2024/01/20 02:00:56;;;;;;;27.65;14.13;;;;;;;-7.36;100.00;102295.38;4988850;28;20041;-69
2024/01/20 02:03:22;;;;;;;28.42;13.52;;;;;;;-7.45;100.00;102293.69;4986623;28;20648;-69
2024/01/20 02:05:47;;;;;;;36.85;16.00;;;;;;;-7.49;100.00;102287.53;4984159;28;20042;-68
2024/01/20 02:08:12;;;;;;;31.75;14.63;;;;;;;-7.52;100.00;102288.91;4987392;28;20044;-69
2024/01/20 02:10:40;;;;;;;31.20;15.02;;;;;;;-7.51;100.00;102295.66;4986788;28;20030;-69
2024/01/20 02:13:06;;;;;;;29.25;14.43;;;;;;;-7.69;100.00;102292.44;4988063;28;20034;-69
2024/01/20 02:15:33;;;;;;;30.65;13.98;;;;;;;-7.71;100.00;102296.44;4988319;28;20041;-69
2024/01/20 02:17:59;;;;;;;31.45;14.93;;;;;;;-7.62;100.00;102294.75;4988276;28;20101;-68
2024/01/20 02:20:24;;;;;;;32.50;16.33;;;;;;;-7.55;100.00;102297.06;4987582;28;20780;-68
2024/01/20 02:22:50;;;;;;;39.80;16.80;;;;;;;-7.39;100.00;102296.72;4986645;28;20038;-68
2024/01/20 02:25:15;;;;;;;37.95;18.15;;;;;;;-7.40;100.00;102293.34;4991654;28;20038;-68
2024/01/20 02:27:41;;;;;;;32.50;16.15;;;;;;;-7.44;100.00;102286.31;4994626;28;20030;-68
2024/01/20 02:30:07;;;;;;;40.00;17.20;;;;;;;-7.41;100.00;102285.69;4992814;28;20046;-68
2024/01/20 02:32:32;;;;;;;39.95;16.20;;;;;;;-7.40;100.00;102283.28;4989230;28;20030;-68
2024/01/20 02:34:58;;;;;;;38.50;16.90;;;;;;;-7.39;100.00;102286.69;4985706;28;20015;-68
2024/01/20 02:37:24;;;;;;;41.50;17.30;;;;;;;-7.40;100.00;102285.81;4984643;28;20030;-69
2024/01/20 02:39:49;;;;;;;38.78;18.08;;;;;;;-7.36;100.00;102282.81;4987169;28;20038;-68
2024/01/20 02:42:14;;;;;;;42.90;18.30;;;;;;;-7.34;100.00;102285.47;4985837;28;20045;-68
2024/01/20 02:44:41;;;;;;;38.83;18.25;;;;;;;-7.33;100.00;102283.09;4988586;28;20641;-69
2024/01/20 02:47:07;;;;;;;38.38;18.05;;;;;;;-7.35;100.00;102288.72;4985515;28;20091;-68
2024/01/20 02:49:34;;;;;;;39.13;18.15;;;;;;;-7.35;100.00;102294.63;4987170;28;20538;-68
2024/01/20 02:51:59;;;;;;;38.75;16.60;;;;;;;-7.21;100.00;102294.19;4987015;28;20043;-69
2024/01/20 02:54:25;;;;;;;48.10;19.70;;;;;;;-7.12;100.00;102290.69;4983675;28;20031;-68
2024/01/20 02:56:50;;;;;;;47.00;19.10;;;;;;;-7.00;100.00;102289.22;4984079;28;20038;-68
2024/01/20 02:59:15;;;;;;;45.38;20.75;;;;;;;-6.92;100.00;102293.25;4993453;28;20630;-68
2024/01/20 03:01:41;;;;;;;41.50;20.20;;;;;;;-6.89;100.00;102291.88;4991021;28;20041;-68
2024/01/20 03:04:06;;;;;;;46.78;20.15;;;;;;;-6.87;100.00;102295.44;4994105;28;20145;-69
2024/01/20 03:06:32;;;;;;;47.78;19.88;;;;;;;-6.84;100.00;102295.69;4989970;28;20054;-69
2024/01/20 03:08:58;;;;;;;40.15;18.83;;;;;;;-6.82;100.00;102291.66;4987114;28;20038;-69
2024/01/20 03:11:24;;;;;;;44.25;18.45;;;;;;;-6.84;100.00;102289.78;4992364;28;20649;-68
2024/01/20 03:13:49;;;;;;;43.95;20.40;;;;;;;-6.86;100.00;102298.78;4990954;28;20045;-68
2024/01/20 03:16:15;;;;;;;49.38;19.33;;;;;;;-6.81;100.00;102295.06;4993921;28;20041;-68
2024/01/20 03:18:40;;;;;;;40.55;18.45;;;;;;;-6.68;100.00;102300.34;4988629;28;20065;-68
2024/01/20 03:21:06;;;;;;;52.47;18.70;;;;;;;-6.60;100.00;102291.84;4990305;28;20026;-68
2024/01/20 03:23:32;;;;;;;42.33;18.10;;;;;;;-6.61;100.00;102295.09;4988156;28;21430;-68
2024/01/20 03:25:58;;;;;;;39.95;16.38;;;;;;;-6.49;100.00;102298.63;4984026;28;20042;-68
2024/01/20 03:28:23;;;;;;;43.33;19.23;;;;;;;-6.47;100.00;102298.75;4987044;28;20521;-69
2024/01/20 03:30:49;;;;;;;41.22;16.70;;;;;;;-6.47;100.00;102303.78;4993951;28;20026;-69
2024/01/20 03:33:14;;;;;;;38.28;17.83;;;;;;;-6.50;100.00;102304.41;4991509;28;20034;-69
2024/01/20 03:35:40;;;;;;;42.38;17.55;;;;;;;-6.54;100.00;102307.44;4988360;28;20045;-68
2024/01/20 03:38:05;;;;;;;38.25;17.27;;;;;;;-6.42;100.00;102307.59;4984291;28;20034;-68
2024/01/20 03:40:31;;;;;;;39.88;17.95;;;;;;;-6.27;100.00;102306.34;4988053;28;20084;-69
2024/01/20 03:42:56;;;;;;;39.35;17.55;;;;;;;-6.30;100.00;102311.13;4990721;28;20440;-69
2024/01/20 03:45:22;;;;;;;39.47;16.77;;;;;;;-6.19;100.00;102308.72;4990234;28;20042;-68
2024/01/20 03:47:47;;;;;;;42.38;18.08;;;;;;;-6.21;100.00;102307.69;4996010;28;20780;-68
2024/01/20 03:50:13;;;;;;;36.45;17.17;;;;;;;-6.24;100.00;102316.66;4995436;28;20053;-68
2024/01/20 03:52:38;;;;;;;46.75;18.10;;;;;;;-6.19;100.00;102310.38;4993773;28;20038;-68
2024/01/20 03:55:06;;;;;;;38.45;18.33;;;;;;;-6.16;100.00;102314.03;4986604;28;20512;-68
2024/01/20 03:57:31;;;;;;;33.38;16.60;;;;;;;-6.14;100.00;102317.53;4997459;28;20034;-68
2024/01/20 03:59:57;;;;;;;36.05;16.55;;;;;;;-6.19;100.00;102322.94;4991317;28;20034;-68
2024/01/20 04:02:22;;;;;;;35.92;15.75;;;;;;;-6.13;100.00;102325.97;4993801;28;20048;-68
2024/01/20 04:04:48;;;;;;;42.03;17.75;;;;;;;-6.07;100.00;102332.41;4992740;28;20038;-67
2024/01/20 04:07:13;;;;;;;37.15;15.55;;;;;;;-6.12;100.00;102328.59;4984810;28;20042;-67
2024/01/20 04:09:38;;;;;;;34.40;15.48;;;;;;;-6.17;100.00;102322.31;4984528;28;20038;-68
2024/01/20 04:12:04;;;;;;;35.72;16.58;;;;;;;-6.23;100.00;102321.81;4986482;28;20030;-67
2024/01/20 04:14:30;;;;;;;32.92;14.77;;;;;;;-6.26;100.00;102336.66;4988207;28;20118;-67
2024/01/20 04:16:55;;;;;;;34.38;16.70;;;;;;;-6.20;100.00;102329.59;4984285;28;20093;-67
2024/01/20 04:19:20;;;;;;;42.85;16.90;;;;;;;-6.11;100.00;102330.38;4985916;28;20035;-67
2024/01/20 04:21:46;;;;;;;37.15;16.08;;;;;;;-6.06;100.00;102324.06;4993695;28;20638;-67
2024/01/20 04:24:11;;;;;;;37.78;16.73;;;;;;;-6.05;100.00;102333.38;4985582;28;20039;-68
2024/01/20 04:26:37;;;;;;;36.10;15.98;;;;;;;-6.05;100.00;102345.09;4986378;28;20065;-67
2024/01/20 04:29:02;;;;;;;36.30;15.77;;;;;;;-5.92;100.00;102345.34;4989287;28;20037;-68
2024/01/20 04:31:29;;;;;;;36.53;17.00;;;;;;;-5.88;100.00;102349.88;4989643;28;20065;-68
2024/01/20 04:33:55;;;;;;;31.88;14.60;;;;;;;-5.87;100.00;102341.56;4992222;28;20065;-67
2024/01/20 04:36:21;;;;;;;36.50;16.15;;;;;;;-5.90;100.00;102343.84;4986572;28;20041;-67
2024/01/20 04:38:47;;;;;;;34.97;16.10;;;;;;;-5.92;100.00;102342.84;4987973;28;20415;-67
2024/01/20 04:41:12;;;;;;;38.40;15.73;;;;;;;-5.91;100.00;102336.13;4984374;28;20395;-67
2024/01/20 04:43:37;;;;;;;37.75;16.58;;;;;;;-5.89;100.00;102338.06;4986002;28;20030;-68
2024/01/20 04:46:03;;;;;;;32.45;15.60;;;;;;;-5.84;100.00;102341.81;4988896;28;20034;-67
2024/01/20 04:48:29;;;;;;;43.13;16.90;;;;;;;-5.80;100.00;102345.47;4986759;28;20558;-68
2024/01/20 04:50:54;;;;;;;36.55;16.00;;;;;;;-5.79;100.00;102339.66;4988638;28;20117;-68
2024/01/20 04:53:20;;;;;;;38.80;17.02;;;;;;;-5.83;100.00;102341.06;4989492;28;20046;-68
2024/01/20 04:55:46;;;;;;;34.20;16.73;;;;;;;-5.82;100.00;102342.81;4985168;28;20019;-68
2024/01/20 04:58:11;;;;;;;40.35;15.70;;;;;;;-5.80;100.00;102348.00;4990279;28;20056;-68
2024/01/20 05:00:37;;;;;;;36.70;15.77;;;;;;;-5.81;100.00;102348.75;4990633;28;20395;-68
2024/01/20 05:03:02;;;;;;;37.25;15.13;;;;;;;-5.82;100.00;102337.78;4987635;28;20104;-68
2024/01/20 05:05:28;;;;;;;36.58;15.15;;;;;;;-5.83;100.00;102343.59;4986504;28;20145;-68
2024/01/20 05:07:53;;;;;;;30.92;15.40;;;;;;;-5.88;100.00;102342.31;4989036;28;20491;-67
2024/01/20 05:10:19;;;;;;;33.97;15.27;;;;;;;-5.94;100.00;102341.81;4990606;28;20503;-69
2024/01/20 05:12:44;;;;;;;29.50;15.15;;;;;;;-6.00;100.00;102350.53;4989817;28;20034;-67
2024/01/20 05:15:11;;;;;;;29.13;15.43;;;;;;;-6.08;100.00;102353.28;4988602;28;20033;-68
2024/01/20 05:17:37;;;;;;;29.08;15.18;;;;;;;-6.18;100.00;102353.25;4991232;28;20050;-67
2024/01/20 05:20:05;;;;;;;35.63;14.95;;;;;;;-6.27;100.00;102356.66;4993872;28;20460;-67
2024/01/20 05:22:31;;;;;;;31.92;14.55;;;;;;;-6.32;100.00;102366.31;4991852;28;20519;-68
2024/01/20 05:24:56;;;;;;;35.55;15.63;;;;;;;-6.41;100.00;102364.66;4988973;28;20039;-68
2024/01/20 05:27:22;;;;;;;33.33;15.05;;;;;;;-6.49;100.00;102366.53;4984493;28;20101;-68
2024/01/20 05:29:47;;;;;;;30.55;14.07;;;;;;;-6.48;100.00;102368.31;4989438;28;20046;-69
2024/01/20 05:32:15;;;;;;;32.22;14.10;;;;;;;-6.49;100.00;102371.56;4990342;28;20042;-68
2024/01/20 05:34:40;;;;;;;34.08;14.57;;;;;;;-6.57;100.00;102374.19;4988223;28;20026;-68
2024/01/20 05:37:06;;;;;;;32.88;15.15;;;;;;;-6.61;100.00;102373.03;4986578;28;20569;-68
2024/01/20 05:39:31;;;;;;;29.90;13.93;;;;;;;-6.65;100.00;102376.94;4990112;28;20034;-68
2024/01/20 05:41:56;;;;;;;34.55;13.75;;;;;;;-6.69;100.00;102381.56;4986394;28;20255;-68
2024/01/20 05:44:22;;;;;;;35.15;14.32;;;;;;;-6.71;100.00;102386.44;4985935;28;20034;-68
2024/01/20 05:46:47;;;;;;;36.10;14.85;;;;;;;-6.77;100.00;102387.56;4993753;28;20049;-68
2024/01/20 05:49:13;;;;;;;39.03;16.02;;;;;;;-6.74;100.00;102392.84;4986405;28;20034;-68
2024/01/20 05:51:38;;;;;;;34.38;15.52;;;;;;;-6.73;100.00;102389.59;4988161;28;20184;-68
2024/01/20 05:54:04;;;;;;;31.90;13.52;;;;;;;-6.77;100.00;102397.59;4987585;28;20058;-68
2024/01/20 05:56:29;;;;;;;32.17;14.20;;;;;;;-6.83;100.00;102397.06;4984356;28;20034;-68
2024/01/20 05:58:55;;;;;;;29.25;14.27;;;;;;;-6.88;100.00;102398.31;4988808;28;20022;-68
2024/01/20 06:01:20;;;;;;;33.45;15.05;;;;;;;-7.02;100.00;102397.16;4986458;28;20449;-68
2024/01/20 06:03:46;;;;;;;35.70;14.85;;;;;;;-7.17;100.00;102395.81;4991177;28;20120;-68
2024/01/20 06:06:11;;;;;;;34.30;14.20;;;;;;;-7.32;100.00;102399.50;4985686;28;20050;-68
2024/01/20 06:08:37;;;;;;;35.13;15.48;;;;;;;-7.45;100.00;102399.16;4986230;28;20049;-68
2024/01/20 06:11:03;;;;;;;32.30;14.50;;;;;;;-7.53;100.00;102400.09;4986566;28;20104;-68
2024/01/20 06:13:29;;;;;;;33.40;14.32;;;;;;;-7.72;100.00;102395.94;4986534;28;20026;-68
2024/01/20 06:15:55;;;;;;;31.20;14.32;;;;;;;-7.84;100.00;102394.84;4986878;28;20145;-68
2024/01/20 06:18:20;;;;;;;33.72;16.15;;;;;;;-8.02;100.00;102388.16;4983627;28;20038;-68
2024/01/20 06:20:46;;;;;;;34.35;15.52;;;;;;;-8.02;100.00;102402.34;4990702;28;20138;-68
2024/01/20 06:23:11;;;;;;;32.95;14.82;;;;;;;-8.04;100.00;102402.19;4987439;28;20041;-68
2024/01/20 06:25:37;;;;;;;31.80;14.15;;;;;;;-7.89;100.00;102410.22;4985050;28;20030;-68
2024/01/20 06:28:05;;;;;;;37.42;15.00;;;;;;;-7.67;100.00;102403.91;4989564;28;20259;-68
2024/01/20 06:30:31;;;;;;;35.20;14.18;;;;;;;-7.68;100.00;102412.16;4989701;28;20119;-68
2024/01/20 06:32:58;;;;;;;38.10;15.48;;;;;;;-7.53;100.00;102406.00;4990278;28;20063;-65
2024/01/20 06:35:23;;;;;;;37.38;13.52;;;;;;;-7.37;100.00;102410.78;4989518;28;20038;-65
2024/01/20 06:37:48;;;;;;;43.90;18.08;;;;;;;-7.37;100.00;102418.31;4988193;28;20034;-65
2024/01/20 06:40:14;;;;;;;37.55;15.57;;;;;;;-7.41;100.00;102418.78;4990676;28;20514;-65
2024/01/20 06:42:39;;;;;;;37.00;14.95;;;;;;;-7.22;100.00;102433.09;4992103;28;20045;-64
2024/01/20 06:45:05;;;;;;;38.60;15.25;;;;;;;-7.25;100.00;102437.84;4989346;28;20045;-65
2024/01/20 06:47:31;;;;;;;31.50;13.98;;;;;;;-7.20;100.00;102428.22;4990539;28;20058;-65
2024/01/20 06:49:56;;;;;;;43.80;19.77;;;;;;;-7.11;100.00;102436.56;4989059;28;20062;-65
2024/01/20 06:52:21;;;;;;;75.63;27.88;;;;;;;-7.17;100.00;102429.38;4991795;28;20053;-65
2024/01/20 06:54:48;;;;;;;63.53;25.27;;;;;;;-7.05;100.00;102434.59;4989435;28;20046;-65
2024/01/20 06:57:13;;;;;;;68.97;27.80;;;;;;;-7.09;100.00;102440.09;4989300;28;20085;-65
2024/01/20 06:59:39;;;;;;;52.50;21.83;;;;;;;-7.09;100.00;102440.09;4996214;28;20057;-64
2024/01/20 07:02:05;;;;;;;60.92;24.65;;;;;;;-7.15;100.00;102437.03;4991933;28;20113;-64
2024/01/20 07:04:31;;;;;;;47.35;23.42;;;;;;;-7.11;100.00;102434.06;4991871;28;20560;-65
2024/01/20 07:06:56;;;;;;;35.05;15.35;;;;;;;-7.08;100.00;102436.84;4988360;28;20151;-65
2024/01/20 07:09:21;;;;;;;34.08;14.95;;;;;;;-7.13;100.00;102443.06;4989299;28;20403;-65
2024/01/20 07:11:47;;;;;;;31.65;13.98;;;;;;;-7.16;100.00;102442.78;4991124;28;20490;-65
2024/01/20 07:14:12;;;;;;;37.50;13.73;;;;;;;-7.12;100.00;102439.81;4989086;28;20030;-65
2024/01/20 07:16:38;;;;;;;33.13;14.40;;;;;;;-7.14;100.00;102447.97;4991610;28;20030;-65
2024/01/20 07:19:03;;;;;;;28.30;14.57;;;;;;;-7.14;100.00;102447.97;4993279;28;20030;-64
2024/01/20 07:21:28;;;;;;;42.45;17.90;;;;;;;-7.08;100.00;102443.50;4991244;28;20034;-65
2024/01/20 07:23:54;;;;;;;30.48;14.48;;;;;;;-7.12;100.00;102446.47;4999583;28;20034;-64
2024/01/20 07:26:19;;;;;;;32.65;15.50;;;;;;;-7.08;100.00;102458.56;4987075;28;20057;-65
2024/01/20 07:28:45;;;;;;;30.40;14.20;;;;;;;-7.08;100.00;102466.09;4995408;28;20399;-65
2024/01/20 07:31:12;;;;;;;33.10;15.20;;;;;;;-7.06;100.00;102457.94;4996567;28;20184;-65
2024/01/20 07:33:38;;;;;;;35.92;13.77;;;;;;;-7.01;100.00;102468.41;4990663;28;20093;-65
2024/01/20 07:36:05;;;;;;;32.45;12.15;;;;;;;-6.88;100.00;102471.22;4987473;28;20038;-65
2024/01/20 07:38:31;;;;;;;32.50;13.77;;;;;;;-6.69;100.00;102467.91;4991292;28;20034;-65
2024/01/20 07:40:58;;;;;;;34.17;12.60;;;;;;;-6.60;100.00;102480.44;4988535;28;20037;-65
2024/01/20 07:43:23;;;;;;;27.63;12.38;;;;;;;-6.57;100.00;102472.25;4993232;28;20036;-65
2024/01/20 07:45:53;;;;;;;28.48;11.60;;;;;;;-6.52;100.00;102473.53;4993842;28;20514;-65
2024/01/20 07:48:19;;;;;;;34.80;13.35;;;;;;;-6.40;100.00;102488.06;4993307;28;20100;-65
2024/01/20 07:50:45;;;;;;;32.78;14.50;;;;;;;-6.33;100.00;102485.28;4984934;28;20038;-65
2024/01/20 07:53:10;;;;;;;36.47;15.60;;;;;;;-6.32;100.00;102483.66;4988307;28;20038;-65
2024/01/20 07:55:35;;;;;;;43.05;19.35;;;;;;;-6.32;100.00;102488.69;4984011;28;20487;-65
2024/01/20 07:58:01;;;;;;;40.13;15.90;;;;;;;-6.35;100.00;102489.31;4990111;28;20120;-65
2024/01/20 08:00:26;;;;;;;44.92;17.58;;;;;;;-6.32;100.00;102497.13;4990201;28;20113;-65
2024/01/20 08:02:51;;;;;;;38.85;15.73;;;;;;;-6.31;100.00;102498.91;4990569;28;20134;-65
2024/01/20 08:05:17;;;;;;;36.17;15.80;;;;;;;-6.26;100.00;102504.31;4991781;28;20041;-65
2024/01/20 08:07:43;;;;;;;36.92;14.95;;;;;;;-6.15;100.00;102503.59;4991494;28;20519;-65
2024/01/20 08:10:09;;;;;;;38.80;16.08;;;;;;;-6.08;100.00;102501.75;4985802;28;20036;-65
2024/01/20 08:12:34;;;;;;;35.03;14.65;;;;;;;-5.95;100.00;102498.66;4990995;28;20038;-65
2024/01/20 08:14:59;;;;;;;41.42;15.85;;;;;;;-5.84;100.00;102515.53;4993946;28;20057;-65
2024/01/20 08:17:25;;;;;;;35.00;15.32;;;;;;;-5.76;100.00;102516.16;4990094;28;20045;-65
2024/01/20 08:19:50;;;;;;;35.92;17.13;;;;;;;-5.72;100.00;102514.06;4992788;28;20105;-65
2024/01/20 08:22:17;;;;;;;38.95;16.42;;;;;;;-5.64;100.00;102519.72;4995151;28;20028;-64
2024/01/20 08:24:43;;;;;;;32.03;13.32;;;;;;;-5.55;100.00;102515.47;4989870;28;20048;-64
2024/01/20 08:27:08;;;;;;;36.15;15.32;;;;;;;-5.48;100.00;102511.06;4994387;28;20026;-65
2024/01/20 08:29:34;;;;;;;34.50;14.68;;;;;;;-5.41;100.00;102516.63;4996042;28;20117;-65
2024/01/20 08:31:59;;;;;;;34.67;15.18;;;;;;;-5.33;100.00;102513.09;4991299;28;20037;-64
2024/01/20 08:34:25;;;;;;;41.22;17.17;;;;;;;-5.25;100.00;102515.47;4993448;28;20035;-65
2024/01/20 08:36:50;;;;;;;42.33;16.08;;;;;;;-5.17;100.00;102523.69;4988564;28;20034;-65
2024/01/20 08:39:19;;;;;;;41.15;17.42;;;;;;;-5.14;100.00;102529.84;4987738;28;20542;-65
2024/01/20 08:41:45;;;;;;;72.70;27.92;;;;;;;-5.07;100.00;102518.63;4989111;28;20403;-65
2024/01/20 08:44:11;;;;;;;50.50;22.00;;;;;;;-4.99;100.00;102525.16;4992358;28;20408;-65
2024/01/20 08:46:36;;;;;;;51.20;24.30;;;;;;;-4.96;100.00;102518.72;4991738;28;20034;-65
2024/01/20 08:49:01;;;;;;;37.42;15.82;;;;;;;-4.88;100.00;102526.06;4997444;28;20042;-67
2024/01/20 08:51:27;;;;;;;32.85;16.42;;;;;;;-4.85;100.00;102527.19;4997585;28;20093;-67
2024/01/20 08:53:53;;;;;;;33.58;15.13;;;;;;;-4.82;100.00;102516.47;4993158;28;20121;-67
2024/01/20 08:56:18;;;;;;;34.83;16.45;;;;;;;-4.73;100.00;102515.56;4992409;28;20046;-67
2024/01/20 08:58:44;;;;;;;31.40;13.88;;;;;;;-4.66;100.00;102516.91;4990918;28;20018;-68
2024/01/20 09:01:09;;;;;;;27.08;13.55;;;;;;;-4.60;100.00;102520.81;4993538;28;20194;-68
2024/01/20 09:03:34;;;;;;;33.47;15.10;;;;;;;-4.52;100.00;102518.88;4988951;28;20041;-67
2024/01/20 09:06:00;;;;;;;30.63;14.90;;;;;;;-4.43;100.00;102517.94;4993038;28;20117;-67
2024/01/20 09:08:25;;;;;;;28.52;13.00;;;;;;;-4.34;100.00;102518.69;4991363;28;20558;-67
2024/01/20 09:10:51;;;;;;;35.97;14.90;;;;;;;-4.24;100.00;102525.34;4994408;28;20061;-67
2024/01/20 09:13:17;;;;;;;32.38;14.80;;;;;;;-4.16;100.00;102519.22;4988847;28;20038;-67
2024/01/20 09:15:43;;;;;;;26.60;13.60;;;;;;;-4.08;100.00;102523.25;4985974;28;20054;-67
2024/01/20 09:18:09;;;;;;;30.52;14.25;;;;;;;-3.99;100.00;102525.63;4990225;28;20034;-67
2024/01/20 09:20:34;;;;;;;31.95;14.45;;;;;;;-3.89;100.00;102518.84;4991369;28;20726;-67
2024/01/20 09:23:00;;;;;;;32.22;14.20;;;;;;;-3.81;100.00;102520.31;4997247;28;20026;-67
2024/01/20 09:25:26;;;;;;;29.25;13.75;;;;;;;-3.71;100.00;102513.44;4990919;28;20066;-67
2024/01/20 09:27:51;;;;;;;28.33;13.88;;;;;;;-3.63;100.00;102513.28;4995418;28;20046;-67
2024/01/20 09:30:17;;;;;;;29.80;14.85;;;;;;;-3.56;100.00;102518.03;4991173;28;20034;-67
2024/01/20 09:32:42;;;;;;;31.50;13.77;;;;;;;-3.46;100.00;102528.06;4996449;28;20038;-67
2024/01/20 09:35:08;;;;;;;28.55;13.80;;;;;;;-3.42;100.00;102519.94;5000391;28;20076;-68
2024/01/20 09:37:36;;;;;;;28.50;13.23;;;;;;;-3.38;100.00;102516.00;4987507;28;20030;-67
2024/01/20 09:40:05;;;;;;;32.42;14.80;;;;;;;-3.30;100.00;102525.91;4986716;28;20046;-67
2024/01/20 09:42:32;;;;;;;31.92;14.70;;;;;;;-3.25;100.00;102527.16;4989347;28;20030;-67
2024/01/20 09:44:58;;;;;;;27.10;14.23;;;;;;;-3.18;100.00;102527.63;4986588;28;20125;-67
2024/01/20 09:47:24;;;;;;;28.33;13.48;;;;;;;-3.11;100.00;102528.16;4990164;28;20038;-67
2024/01/20 09:49:49;;;;;;;41.25;16.85;;;;;;;-3.06;100.00;102524.31;4991440;28;20298;-68
2024/01/20 09:52:15;;;;;;;26.83;14.23;;;;;;;-3.01;100.00;102524.69;4992274;28;20030;-67
2024/01/20 09:55:08;;;;;;;32.03;13.98;;;;;;;-2.94;100.00;102524.34;4987844;28;20113;-68
2024/01/20 09:57:35;;;;;;;28.80;14.23;;;;;;;-2.89;100.00;102526.47;4992246;28;20141;-67
2024/01/20 10:00:02;;;;;;;35.17;15.90;;;;;;;-2.80;100.00;102521.19;4994903;28;20041;-67
2024/01/20 10:02:29;;;;;;;34.28;14.68;;;;;;;-2.70;100.00;102516.91;4992922;28;20133;-67
2024/01/20 10:04:59;;;;;;;31.35;13.80;;;;;;;-2.67;100.00;102513.69;4994322;28;20041;-67
2024/01/20 10:07:29;;;;;;;32.40;14.63;;;;;;;-2.60;100.00;102512.50;4994644;28;20027;-67
2024/01/20 10:09:54;;;;;;;28.70;14.20;;;;;;;-2.54;100.00;102518.91;4996087;28;20427;-67
2024/01/20 10:12:20;;;;;;;32.63;16.08;;;;;;;-2.45;100.00;102522.09;5003491;28;20044;-67
2024/01/20 10:14:45;;;;;;;29.95;14.35;;;;;;;-2.37;100.00;102523.50;4994865;28;20120;-67
2024/01/20 10:17:11;;;;;;;32.17;14.88;;;;;;;-2.34;100.00;102516.13;4998826;28;20067;-67
2024/01/20 10:19:38;;;;;;;33.85;15.40;;;;;;;-2.28;100.00;102506.44;4999288;28;20041;-67
2024/01/20 10:22:10;;;;;;;33.22;14.25;;;;;;;-2.21;100.00;102518.75;4992294;28;20042;-67
2024/01/20 10:24:50;;;;;;;28.92;14.73;;;;;;;-2.21;99.65;102497.63;4994600;28;20030;-67
2024/01/20 10:27:19;;;;;;;31.27;14.27;;;;;;;-2.14;99.45;102503.19;4998491;28;20081;-68
2024/01/20 10:29:46;;;;;;;24.88;13.32;;;;;;;-2.09;99.18;102501.00;4997827;28;20491;-68
2024/01/20 10:32:13;;;;;;;28.63;13.80;;;;;;;-2.00;99.27;102508.38;4996114;28;20042;-67
2024/01/20 10:34:38;;;;;;;26.95;12.93;;;;;;;-1.94;98.46;102494.47;4996407;28;20033;-68
2024/01/20 10:37:13;;;;;;;28.83;13.70;;;;;;;-1.96;98.25;102483.34;4995873;28;20443;-68
2024/01/20 10:39:44;;;;;;;29.40;13.80;;;;;;;-1.91;97.91;102488.72;4996341;28;20686;-68
2024/01/20 10:42:14;;;;;;;28.58;13.05;;;;;;;-1.88;98.67;102494.00;4995659;28;20034;-68
2024/01/20 10:44:44;;;;;;;27.73;13.55;;;;;;;-1.81;98.21;102489.44;4993770;28;20049;-67
2024/01/20 10:47:32;;;;;;;33.45;14.30;;;;;;;-1.76;97.57;102489.78;4993522;28;20043;-67
2024/01/20 10:50:05;;;;;;;22.73;11.50;;;;;;;-1.71;97.53;102488.44;4988332;28;20052;-68
2024/01/20 10:52:38;;;;;;;27.33;13.23;;;;;;;-1.66;97.12;102490.50;4994392;28;20368;-67
2024/01/20 10:55:05;;;;;;;26.40;12.93;;;;;;;-1.53;96.60;102471.94;4996524;28;20391;-67
2024/01/20 10:57:31;;;;;;;24.80;12.85;;;;;;;-1.47;96.51;102469.81;4994205;28;20034;-68